Flight Track Log - Related Links

Times and Time Zones

All times are in EDT time to prevent confusion due to time zone crossing. See the N1926A flight status page for this flight to view local times or setup timezone preferences in your user account.

Time Position Orientation Groundspeed Altitude Reporting Facility
EDT Latitude Longitude Course Direction KTS MPH feet Rate Location/Type
Sun 20:03:00 32.4045 -86.1017 246° West  Level FlightAware Approximate
Sun 20:04:00 32.3893 -86.1413 246° West  Level FlightAware Approximate
Sun 20:05:00 32.3741 -86.1808 245° Southwest  Level FlightAware Approximate
Sun 20:06:00 32.3639 -86.2213 235° Southwest  Level FlightAware Approximate
Sun 20:07:00 32.3426 -86.2567 235° Southwest  Level FlightAware Approximate
Sun 20:08:00 32.3214 -86.2922 235° Southwest  Level FlightAware Approximate
Sun 20:09:00 32.3101 -86.3329 257° West  Level FlightAware Approximate
Sun 20:10:00 32.3016 -86.3752 257° West  Level FlightAware Approximate
Sun 20:11:00 32.3000 -86.3833 257° West  Level FlightAware Approximate
Sun 20:12:00 32.3006 -86.3940 257° West  Level Estimated
Sun 20:13:00 32.3006 -86.3940 257° West  Level Estimated
Sun 20:14:00 32.3006 -86.3940 257° West  Level Estimated
Sun 20:15:00 32.3006 -86.3940 257° West  Level Estimated
Sun 20:16:00 32.3006 -86.3940 257° West  Level Estimated
Sun 20:17:00 32.3006 -86.3940 257° West  Level Estimated
Sun 20:18:00 32.3006 -86.3940 257° West  Level Estimated
Sun 20:19:00 32.3006 -86.3940 257° West  Level Estimated
Sun 20:20:00 32.3006 -86.3940 257° West  Level Estimated
Sun 20:21:00 32.3006 -86.3940 257° West  Level Estimated
Sun 20:22:00 32.3006 -86.3940 257° West  Level Estimated
Sun 20:23:00 32.3006 -86.3940 257° West  Level Estimated
Sun 20:24:00 32.3006 -86.3940 257° West  Level Estimated
Sun 20:25:00 32.3006 -86.3940 257° West  Level Estimated
Sun 20:26:00 32.3006 -86.3940 257° West  Level Estimated

Login

Don't have an account? Register now (free) for customized features, flight alerts, and more!